createdAt,value
2022-11-29T00:01:25.509Z,5.00
2022-11-29T00:03:52.243Z,5.08
2022-11-29T00:06:23.318Z,5.17
2022-11-29T00:08:50.444Z,5.13
2022-11-29T00:11:38.899Z,5.14
2022-11-29T00:14:06.290Z,5.11
2022-11-29T00:16:32.817Z,5.22
2022-11-29T00:18:59.315Z,5.15
2022-11-29T00:21:25.894Z,5.16
2022-11-29T00:23:52.610Z,5.13
2022-11-29T00:26:19.145Z,5.17
2022-11-29T00:28:45.606Z,5.18
2022-11-29T00:31:19.721Z,5.10
2022-11-29T00:33:46.247Z,5.11
2022-11-29T00:36:12.803Z,5.09
2022-11-29T00:38:39.399Z,5.11
2022-11-29T00:41:06.127Z,5.07
2022-11-29T00:43:32.678Z,5.08
2022-11-29T00:45:59.216Z,5.17
2022-11-29T00:48:25.699Z,5.12
2022-11-29T00:50:52.174Z,5.11
2022-11-29T00:53:18.632Z,5.15
2022-11-29T00:55:47.321Z,5.12
2022-11-29T00:58:14.031Z,5.10
2022-11-29T01:00:40.610Z,5.09
2022-11-29T01:03:07.289Z,5.08
2022-11-29T01:05:33.760Z,5.09
2022-11-29T01:08:00.456Z,5.12
2022-11-29T01:10:26.958Z,5.11
2022-11-29T01:12:53.830Z,5.10
2022-11-29T01:15:20.276Z,5.06
2022-11-29T01:17:46.822Z,5.03
2022-11-29T01:20:13.472Z,5.03
2022-11-29T01:22:40.333Z,5.05
2022-11-29T01:25:07.382Z,5.15
2022-11-29T01:27:34.508Z,5.20
2022-11-29T01:30:00.972Z,5.16
2022-11-29T01:32:27.465Z,5.13
2022-11-29T01:34:53.939Z,5.12
2022-11-29T01:37:20.405Z,5.14
2022-11-29T01:39:46.900Z,5.11
2022-11-29T01:42:13.654Z,5.07
2022-11-29T01:44:39.966Z,5.06
2022-11-29T01:47:06.443Z,5.00
2022-11-29T01:49:36.174Z,4.95
2022-11-29T01:52:08.147Z,4.95
2022-11-29T01:54:36.809Z,5.00
2022-11-29T01:57:04.488Z,5.01
2022-11-29T01:59:30.955Z,5.01
2022-11-29T02:02:00.969Z,5.01
2022-11-29T02:04:27.430Z,5.05
2022-11-29T02:06:54.033Z,5.04
2022-11-29T02:09:22.198Z,5.03
2022-11-29T02:12:07.906Z,5.11
2022-11-29T02:14:49.999Z,5.21
2022-11-29T02:17:39.769Z,5.15
2022-11-29T02:20:23.082Z,5.13
2022-11-29T02:23:28.468Z,5.17
2022-11-29T02:26:30.454Z,5.13
2022-11-29T02:29:18.257Z,5.10
2022-11-29T02:32:18.574Z,5.09
2022-11-29T02:34:50.996Z,5.09
2022-11-29T02:37:38.481Z,5.07
2022-11-29T02:40:14.387Z,5.20
2022-11-29T02:43:10.941Z,5.18
2022-11-29T02:46:05.032Z,5.17
2022-11-29T02:48:53.333Z,5.15
2022-11-29T02:51:39.601Z,5.09
2022-11-29T02:54:16.744Z,5.03
2022-11-29T02:56:54.610Z,5.04
2022-11-29T02:59:48.486Z,5.03
2022-11-29T03:02:26.725Z,5.01
2022-11-29T03:05:30.855Z,5.01
2022-11-29T03:08:06.321Z,5.00
2022-11-29T03:11:10.245Z,4.95
2022-11-29T03:13:58.563Z,4.93
2022-11-29T03:16:43.909Z,4.87
2022-11-29T03:19:34.986Z,4.86
2022-11-29T03:22:14.103Z,4.85
2022-11-29T03:25:03.665Z,4.86
2022-11-29T03:27:45.898Z,4.90
2022-11-29T03:30:14.965Z,5.02
2022-11-29T03:32:59.600Z,5.07
2022-11-29T03:35:42.990Z,5.05
2022-11-29T03:38:25.664Z,5.03
2022-11-29T03:41:17.224Z,5.08
2022-11-29T03:44:14.705Z,5.07
2022-11-29T03:46:55.585Z,5.13
2022-11-29T03:49:32.284Z,5.16
2022-11-29T03:52:01.235Z,5.08
2022-11-29T03:55:05.220Z,5.07
2022-11-29T03:57:38.345Z,5.07
2022-11-29T04:00:09.505Z,5.21
2022-11-29T04:02:48.077Z,5.12
2022-11-29T04:05:46.325Z,5.09
2022-11-29T04:09:20.973Z,5.06
2022-11-29T04:12:14.895Z,5.05
2022-11-29T04:15:21.386Z,5.04
2022-11-29T04:18:23.513Z,5.05
2022-11-29T04:21:14.761Z,5.01
2022-11-29T04:24:04.061Z,4.93
2022-11-29T04:26:55.301Z,4.94
2022-11-29T04:29:41.350Z,4.94
2022-11-29T04:32:13.719Z,4.93
2022-11-29T04:34:55.378Z,4.89
2022-11-29T04:37:30.952Z,4.88
2022-11-29T04:40:17.968Z,4.83
2022-11-29T04:43:09.348Z,4.82
2022-11-29T04:45:47.938Z,4.90
2022-11-29T04:48:32.592Z,5.00
2022-11-29T04:51:30.986Z,5.00
2022-11-29T04:54:47.996Z,5.07
2022-11-29T04:57:37.268Z,5.05
2022-11-29T05:00:11.442Z,5.05
2022-11-29T05:02:57.298Z,5.00
2022-11-29T05:05:39.250Z,4.96
2022-11-29T05:08:32.847Z,5.03
2022-11-29T05:11:23.450Z,5.10
2022-11-29T05:14:05.843Z,5.03
2022-11-29T05:16:50.998Z,4.91
2022-11-29T05:19:42.345Z,4.92
2022-11-29T05:22:30.777Z,4.94
2022-11-29T05:25:44.320Z,4.92
2022-11-29T05:28:26.351Z,4.92
2022-11-29T05:31:18.830Z,4.95
2022-11-29T05:33:45.204Z,5.01
2022-11-29T05:36:20.218Z,4.94
2022-11-29T05:39:10.749Z,4.97
2022-11-29T05:41:57.072Z,4.99
2022-11-29T05:44:37.201Z,5.02
2022-11-29T05:47:10.039Z,5.00
2022-11-29T05:50:10.249Z,5.02
2022-11-29T05:53:02.094Z,4.97
2022-11-29T05:55:59.147Z,4.94
2022-11-29T05:58:30.970Z,4.89
2022-11-29T06:01:21.949Z,4.89
2022-11-29T06:04:14.719Z,4.85
2022-11-29T06:06:48.108Z,4.85
2022-11-29T06:09:25.502Z,4.88
2022-11-29T06:12:06.758Z,4.88
2022-11-29T06:14:39.154Z,4.86
2022-11-29T06:17:19.112Z,4.84
2022-11-29T06:19:59.914Z,4.85
2022-11-29T06:23:01.916Z,4.86
2022-11-29T06:26:07.241Z,4.88
2022-11-29T06:29:02.758Z,4.88
2022-11-29T06:31:39.812Z,4.81
2022-11-29T06:34:09.328Z,4.80
2022-11-29T06:36:52.227Z,4.81
2022-11-29T06:39:18.792Z,4.81
2022-11-29T06:41:45.278Z,4.81
2022-11-29T06:44:11.947Z,4.76
2022-11-29T06:46:49.567Z,4.82
2022-11-29T06:49:26.947Z,4.84
2022-11-29T06:52:10.636Z,4.94
2022-11-29T06:55:05.377Z,4.88
2022-11-29T06:57:59.626Z,4.98
2022-11-29T07:00:27.362Z,5.25
2022-11-29T07:03:19.476Z,5.18
2022-11-29T07:05:46.737Z,5.28
2022-11-29T07:08:18.847Z,5.08
2022-11-29T07:10:49.944Z,4.92
2022-11-29T07:13:19.628Z,4.86
2022-11-29T07:15:52.157Z,4.84
2022-11-29T07:18:28.138Z,4.85
2022-11-29T07:21:30.267Z,4.86
2022-11-29T07:24:02.004Z,4.91
2022-11-29T07:26:52.858Z,4.94
2022-11-29T07:29:30.902Z,4.96
2022-11-29T07:32:16.478Z,4.93
2022-11-29T07:34:52.078Z,5.01
2022-11-29T07:37:57.737Z,5.03
2022-11-29T07:40:37.715Z,5.05
2022-11-29T07:43:17.559Z,5.10
2022-11-29T07:45:45.740Z,5.19
2022-11-29T07:48:12.385Z,5.40
2022-11-29T07:50:39.482Z,5.55
2022-11-29T07:53:05.990Z,5.57
2022-11-29T07:55:32.607Z,5.45
2022-11-29T07:57:59.084Z,5.41
2022-11-29T08:00:25.586Z,5.38
2022-11-29T08:02:52.088Z,5.36
2022-11-29T08:05:18.614Z,5.35
2022-11-29T08:07:46.338Z,5.37
2022-11-29T08:10:14.533Z,5.34
2022-11-29T08:12:45.798Z,5.34
2022-11-29T08:15:12.436Z,5.30
2022-11-29T08:17:39.203Z,5.30
2022-11-29T08:20:06.312Z,5.31
2022-11-29T08:22:32.775Z,5.32
2022-11-29T08:24:59.922Z,5.35
2022-11-29T08:27:26.427Z,5.38
2022-11-29T08:29:52.915Z,5.34
2022-11-29T08:32:19.424Z,5.37
2022-11-29T08:34:46.207Z,5.38
2022-11-29T08:37:12.940Z,5.40
2022-11-29T08:39:39.396Z,5.43
2022-11-29T08:42:05.877Z,5.48
2022-11-29T08:44:32.364Z,5.51
2022-11-29T08:47:17.473Z,5.50
2022-11-29T08:50:01.825Z,5.47
2022-11-29T08:52:54.728Z,5.38
2022-11-29T08:55:22.044Z,5.34
2022-11-29T08:57:49.342Z,5.37
2022-11-29T09:00:16.115Z,5.41
2022-11-29T09:02:42.656Z,5.44
2022-11-29T09:05:09.979Z,5.50
2022-11-29T09:07:36.762Z,5.54
2022-11-29T09:10:06.008Z,5.66
2022-11-29T09:12:35.679Z,5.81
2022-11-29T09:15:04.279Z,5.78
2022-11-29T09:17:30.876Z,5.85
2022-11-29T09:19:57.390Z,5.87
2022-11-29T09:22:23.867Z,5.78
2022-11-29T09:24:50.450Z,5.72
2022-11-29T09:27:17.202Z,5.77
2022-11-29T09:29:43.653Z,5.86
2022-11-29T09:32:10.164Z,5.79
2022-11-29T09:34:36.806Z,5.82
2022-11-29T09:37:05.076Z,5.89
2022-11-29T09:39:31.823Z,5.80
2022-11-29T09:42:12.008Z,5.80
2022-11-29T09:44:48.019Z,5.76
2022-11-29T09:47:18.921Z,5.79
2022-11-29T09:49:55.733Z,6.07
2022-11-29T09:52:32.511Z,6.01
2022-11-29T09:55:02.557Z,5.96
2022-11-29T09:57:29.726Z,5.97
2022-11-29T10:00:03.317Z,5.98
2022-11-29T10:02:45.300Z,5.90
2022-11-29T10:05:25.149Z,5.93
2022-11-29T10:08:01.187Z,5.98
2022-11-29T10:10:40.816Z,5.97
2022-11-29T10:13:10.491Z,5.96
2022-11-29T10:15:41.121Z,6.04
2022-11-29T10:18:19.017Z,6.01
2022-11-29T10:20:49.002Z,6.03
2022-11-29T10:23:21.608Z,6.10
2022-11-29T10:25:49.526Z,6.14
2022-11-29T10:28:18.725Z,6.15
2022-11-29T10:30:45.390Z,6.13
2022-11-29T10:33:18.423Z,6.14
2022-11-29T10:35:45.347Z,6.16
2022-11-29T10:38:30.384Z,6.17
2022-11-29T10:41:04.437Z,6.30
2022-11-29T10:43:31.064Z,6.33
2022-11-29T10:45:58.676Z,6.31
2022-11-29T10:48:27.320Z,6.30
2022-11-29T10:50:54.105Z,6.32
2022-11-29T10:53:31.528Z,6.44
2022-11-29T10:56:19.951Z,6.42
2022-11-29T10:59:05.108Z,6.37
2022-11-29T11:01:32.482Z,6.34
2022-11-29T11:04:00.170Z,6.36
2022-11-29T11:06:27.921Z,6.30
2022-11-29T11:09:11.347Z,6.35
2022-11-29T11:11:38.426Z,6.26
2022-11-29T11:14:06.767Z,6.26
2022-11-29T11:16:37.320Z,6.27
2022-11-29T11:19:32.758Z,6.35
2022-11-29T11:22:02.758Z,6.38
2022-11-29T11:24:31.305Z,6.35
2022-11-29T11:26:57.945Z,6.31
2022-11-29T11:29:27.155Z,6.31
2022-11-29T11:31:57.868Z,6.35
2022-11-29T11:34:36.998Z,6.34
2022-11-29T11:37:15.938Z,6.31
2022-11-29T11:39:43.082Z,6.33
2022-11-29T11:42:32.859Z,6.36
2022-11-29T11:44:59.529Z,6.36
2022-11-29T11:47:29.974Z,6.42
2022-11-29T11:50:02.507Z,6.52
2022-11-29T11:52:52.445Z,6.57
2022-11-29T11:55:21.870Z,6.58
2022-11-29T11:57:57.751Z,6.55
2022-11-29T12:01:03.374Z,6.63
2022-11-29T12:04:14.167Z,6.57
2022-11-29T12:06:46.515Z,6.67
2022-11-29T12:09:22.027Z,6.64
2022-11-29T12:12:00.242Z,6.56
2022-11-29T12:14:41.483Z,6.60
2022-11-29T12:17:26.920Z,6.59
2022-11-29T12:20:21.483Z,6.64
2022-11-29T12:23:10.003Z,6.66
2022-11-29T12:25:56.526Z,6.66
2022-11-29T12:28:44.999Z,6.73
2022-11-29T12:31:48.495Z,6.90
2022-11-29T12:34:36.953Z,6.81
2022-11-29T12:37:08.846Z,6.78
2022-11-29T12:39:47.417Z,6.74
2022-11-29T12:42:26.107Z,6.74
2022-11-29T12:45:16.673Z,6.74
2022-11-29T12:48:05.111Z,6.70
2022-11-29T12:50:34.234Z,6.70
2022-11-29T12:53:06.875Z,6.64
2022-11-29T12:55:33.231Z,6.66
2022-11-29T12:58:10.890Z,6.86
2022-11-29T13:00:51.686Z,6.76
2022-11-29T13:03:28.899Z,6.80
2022-11-29T13:06:07.735Z,6.80
2022-11-29T13:08:46.382Z,6.83
2022-11-29T13:11:25.401Z,6.81
2022-11-29T13:14:08.227Z,6.86
2022-11-29T13:17:27.984Z,6.80
2022-11-29T13:19:56.396Z,6.89
2022-11-29T13:22:43.749Z,6.87
2022-11-29T13:25:40.346Z,6.91
2022-11-29T13:28:35.409Z,6.91
2022-11-29T13:31:04.617Z,6.94
2022-11-29T13:33:54.326Z,7.03
2022-11-29T13:37:08.973Z,6.94
2022-11-29T13:40:06.636Z,6.99
2022-11-29T13:42:55.047Z,6.99
2022-11-29T13:45:28.391Z,6.97
2022-11-29T13:47:56.467Z,6.99
2022-11-29T13:50:44.823Z,6.93
2022-11-29T13:53:17.185Z,7.02
2022-11-29T13:55:59.823Z,6.98
2022-11-29T13:58:29.212Z,7.00
2022-11-29T14:01:08.726Z,7.03
2022-11-29T14:03:45.340Z,6.86
2022-11-29T14:06:13.861Z,7.00
2022-11-29T14:09:25.206Z,7.01
2022-11-29T14:12:28.870Z,7.01
2022-11-29T14:14:58.579Z,6.99
2022-11-29T14:17:54.544Z,6.97
2022-11-29T14:20:24.746Z,7.02
2022-11-29T14:23:06.583Z,6.99
2022-11-29T14:25:51.513Z,7.00
2022-11-29T14:28:18.463Z,7.02
2022-11-29T14:30:44.750Z,7.03
2022-11-29T14:33:22.233Z,6.96
2022-11-29T14:35:49.689Z,7.06
2022-11-29T14:38:19.917Z,7.10
2022-11-29T14:40:52.088Z,7.11
2022-11-29T14:43:33.349Z,7.11
2022-11-29T14:46:29.445Z,7.07
2022-11-29T14:48:59.352Z,6.98
2022-11-29T14:51:27.817Z,6.97
2022-11-29T14:54:11.557Z,6.98
2022-11-29T14:56:42.250Z,6.98
2022-11-29T14:59:50.774Z,6.89
2022-11-29T15:02:20.153Z,6.80
2022-11-29T15:04:48.276Z,6.87
2022-11-29T15:07:16.867Z,6.92
2022-11-29T15:09:43.407Z,6.85
2022-11-29T15:12:12.622Z,6.85
2022-11-29T15:14:57.936Z,6.88
2022-11-29T15:17:30.098Z,6.82
2022-11-29T15:20:15.367Z,6.77
2022-11-29T15:22:52.252Z,6.77
2022-11-29T15:25:21.004Z,6.82
2022-11-29T15:28:00.835Z,6.85
2022-11-29T15:30:39.008Z,6.82
2022-11-29T15:33:07.725Z,6.85
2022-11-29T15:35:34.901Z,6.80
2022-11-29T15:38:02.067Z,6.78
2022-11-29T15:40:37.321Z,6.86
2022-11-29T15:43:25.747Z,6.93
2022-11-29T15:45:54.703Z,6.82
2022-11-29T15:48:32.100Z,6.88
2022-11-29T15:51:06.052Z,6.79
2022-11-29T15:54:12.046Z,6.82
2022-11-29T15:56:49.312Z,6.87
2022-11-29T15:59:49.409Z,6.86
2022-11-29T16:02:16.106Z,6.79
2022-11-29T16:04:46.765Z,6.76
2022-11-29T16:07:14.235Z,6.74
2022-11-29T16:09:46.271Z,6.78
2022-11-29T16:12:14.517Z,6.80
2022-11-29T16:14:55.616Z,6.72
2022-11-29T16:17:26.640Z,6.71
2022-11-29T16:20:19.458Z,6.71
2022-11-29T16:22:46.205Z,6.70
2022-11-29T16:25:17.850Z,6.77
2022-11-29T16:27:45.718Z,6.80
2022-11-29T16:30:25.600Z,6.99
2022-11-29T16:32:57.750Z,6.84
2022-11-29T16:35:31.699Z,6.80
2022-11-29T16:37:58.138Z,6.78
2022-11-29T16:40:26.411Z,6.77
2022-11-29T16:43:18.094Z,6.75
2022-11-29T16:45:44.590Z,6.76
2022-11-29T16:48:24.506Z,6.72
2022-11-29T16:51:09.538Z,6.70
2022-11-29T16:53:37.565Z,6.70
2022-11-29T16:56:13.622Z,6.72
2022-11-29T16:58:43.227Z,6.72
2022-11-29T17:01:28.020Z,6.71
2022-11-29T17:03:59.256Z,6.69
2022-11-29T17:06:26.061Z,6.68
2022-11-29T17:08:53.128Z,6.68
2022-11-29T17:11:19.570Z,6.69
2022-11-29T17:13:47.051Z,6.69
2022-11-29T17:16:14.526Z,6.72
2022-11-29T17:18:41.980Z,6.71
2022-11-29T17:21:18.832Z,6.70
2022-11-29T17:23:45.621Z,6.71
2022-11-29T17:26:12.034Z,6.74
2022-11-29T17:28:40.278Z,6.75
2022-11-29T17:31:14.993Z,6.73
2022-11-29T17:33:41.567Z,6.71
2022-11-29T17:36:09.606Z,6.73
2022-11-29T17:38:36.041Z,6.75
2022-11-29T17:41:07.182Z,6.75
2022-11-29T17:43:35.038Z,6.73
2022-11-29T17:46:08.648Z,6.71
2022-11-29T17:48:35.126Z,6.69
2022-11-29T17:51:01.708Z,6.69
2022-11-29T17:53:28.477Z,6.70
2022-11-29T17:55:55.098Z,6.68
2022-11-29T17:58:21.780Z,6.69
2022-11-29T18:00:48.224Z,6.70
2022-11-29T18:03:14.888Z,6.69
2022-11-29T18:05:41.395Z,6.69
2022-11-29T18:08:11.549Z,6.68
2022-11-29T18:10:38.154Z,6.72
2022-11-29T18:13:04.718Z,6.70
2022-11-29T18:15:32.573Z,6.71
2022-11-29T18:17:59.385Z,6.75
2022-11-29T18:20:26.163Z,6.72
2022-11-29T18:22:53.405Z,6.72
2022-11-29T18:25:38.021Z,6.69
2022-11-29T18:28:05.480Z,6.67
2022-11-29T18:30:32.293Z,6.67
2022-11-29T18:32:59.982Z,6.68
2022-11-29T18:35:28.111Z,7.08
2022-11-29T18:38:14.737Z,7.04
2022-11-29T18:40:42.528Z,6.90
2022-11-29T18:43:09.134Z,6.79
2022-11-29T18:45:39.097Z,6.87
2022-11-29T18:48:11.616Z,6.86
2022-11-29T18:50:38.135Z,6.80
2022-11-29T18:53:09.497Z,6.85
2022-11-29T18:55:36.012Z,6.84
2022-11-29T18:58:02.884Z,6.78
2022-11-29T19:00:29.345Z,6.76
2022-11-29T19:02:56.267Z,6.87
2022-11-29T19:05:22.811Z,7.03
2022-11-29T19:07:49.340Z,6.90
2022-11-29T19:10:15.843Z,6.92
2022-11-29T19:12:42.315Z,6.92
2022-11-29T19:15:09.658Z,6.83
2022-11-29T19:17:41.675Z,6.87
2022-11-29T19:20:10.412Z,6.87
2022-11-29T19:22:36.901Z,6.89
2022-11-29T19:25:03.388Z,6.87
2022-11-29T19:27:29.872Z,6.87
2022-11-29T19:29:56.691Z,7.04
2022-11-29T19:32:23.509Z,6.90
2022-11-29T19:34:50.038Z,7.06
2022-11-29T19:37:16.525Z,7.04
2022-11-29T19:39:43.270Z,7.07
2022-11-29T19:42:09.885Z,6.95
2022-11-29T19:45:01.182Z,6.87
2022-11-29T19:47:22.880Z,6.80
2022-11-29T19:49:49.600Z,6.92
2022-11-29T19:52:16.378Z,6.92
2022-11-29T19:54:42.846Z,6.90
2022-11-29T19:57:09.324Z,6.88
2022-11-29T19:59:35.804Z,6.86
2022-11-29T20:02:02.555Z,7.07
2022-11-29T20:04:29.095Z,6.97
2022-11-29T20:06:55.655Z,7.03
2022-11-29T20:09:22.485Z,6.87
2022-11-29T20:11:48.946Z,6.92
2022-11-29T20:14:15.453Z,6.92
2022-11-29T20:16:42.069Z,6.84
2022-11-29T20:19:12.989Z,6.95
2022-11-29T20:21:44.683Z,7.02
2022-11-29T20:24:11.632Z,6.89
2022-11-29T20:26:38.791Z,6.87
2022-11-29T20:29:06.070Z,6.91
2022-11-29T20:31:33.197Z,7.00
2022-11-29T20:33:59.827Z,7.05
2022-11-29T20:36:50.931Z,7.00
2022-11-29T20:39:36.200Z,6.89
2022-11-29T20:42:24.462Z,6.82
2022-11-29T20:45:04.583Z,6.80
2022-11-29T20:47:51.861Z,6.77
2022-11-29T20:50:23.131Z,6.75
2022-11-29T20:53:15.285Z,6.77
2022-11-29T20:55:47.739Z,6.78
2022-11-29T20:58:14.911Z,7.00
2022-11-29T21:00:41.389Z,6.95
2022-11-29T21:03:07.881Z,6.84
2022-11-29T21:05:37.551Z,6.80
2022-11-29T21:08:04.131Z,6.77
2022-11-29T21:10:30.655Z,6.79
2022-11-29T21:12:57.488Z,6.94
2022-11-29T21:15:24.176Z,6.87
2022-11-29T21:17:50.930Z,6.83
2022-11-29T21:20:22.498Z,6.77
2022-11-29T21:23:05.839Z,6.75
2022-11-29T21:25:38.253Z,6.73
2022-11-29T21:28:07.931Z,6.73
2022-11-29T21:30:34.639Z,6.70
2022-11-29T21:33:01.316Z,6.90
2022-11-29T21:35:28.048Z,6.81
2022-11-29T21:37:55.578Z,6.80
2022-11-29T21:40:22.073Z,6.75
2022-11-29T21:42:48.548Z,6.72
2022-11-29T21:45:16.052Z,6.71
2022-11-29T21:47:44.176Z,6.74
2022-11-29T21:50:11.869Z,6.74
2022-11-29T21:52:38.352Z,6.72
2022-11-29T21:55:05.185Z,6.73
2022-11-29T21:57:31.659Z,6.72
2022-11-29T21:59:58.131Z,6.67
2022-11-29T22:02:24.961Z,6.66
2022-11-29T22:04:51.491Z,6.80
2022-11-29T22:07:18.003Z,6.71
2022-11-29T22:09:44.501Z,6.70
2022-11-29T22:12:32.451Z,6.76
2022-11-29T22:14:57.673Z,6.70
2022-11-29T22:17:24.168Z,6.72
2022-11-29T22:19:50.650Z,6.85
2022-11-29T22:22:17.164Z,6.72
2022-11-29T22:24:43.806Z,6.67
2022-11-29T22:27:10.396Z,6.66
2022-11-29T22:29:36.982Z,6.61
2022-11-29T22:32:03.794Z,6.62
2022-11-29T22:34:30.253Z,6.63
2022-11-29T22:36:56.731Z,6.62
2022-11-29T22:39:23.946Z,6.62
2022-11-29T22:41:54.256Z,6.59
2022-11-29T22:44:21.378Z,6.70
2022-11-29T22:46:47.942Z,6.72
2022-11-29T22:49:14.566Z,6.66
2022-11-29T22:51:41.026Z,6.64
2022-11-29T22:54:08.613Z,6.64
2022-11-29T22:56:36.754Z,6.63
2022-11-29T22:59:03.718Z,6.63
2022-11-29T23:01:31.533Z,6.59
2022-11-29T23:03:59.266Z,6.60
2022-11-29T23:06:30.617Z,6.76
2022-11-29T23:09:00.097Z,6.72
2022-11-29T23:11:28.350Z,6.67
2022-11-29T23:13:55.159Z,6.66
2022-11-29T23:16:23.683Z,6.70
2022-11-29T23:18:50.576Z,6.94
2022-11-29T23:21:25.081Z,6.85
2022-11-29T23:23:56.320Z,6.83
2022-11-29T23:26:25.489Z,6.84
2022-11-29T23:28:52.503Z,6.78
2022-11-29T23:31:19.154Z,6.81
2022-11-29T23:33:45.691Z,6.91
2022-11-29T23:36:12.272Z,6.79
2022-11-29T23:38:38.900Z,6.79
2022-11-29T23:41:05.911Z,6.82
2022-11-29T23:43:33.330Z,6.82
2022-11-29T23:45:59.831Z,6.81
2022-11-29T23:48:26.370Z,6.88
2022-11-29T23:50:53.160Z,6.71
2022-11-29T23:53:19.725Z,6.72
2022-11-29T23:55:49.750Z,6.79
2022-11-29T23:58:16.234Z,6.68
